Date,TemperatureHighF,TemperatureAvgF,TemperatureLowF,DewpointHighF,DewpointAvgF,DewpointLowF,HumidityHigh,HumidityAvg,HumidityLow,PressureMaxIn,PressureMinIn,WindSpeedMaxMPH,WindSpeedAvgMPH,GustSpeedMaxMPH,PrecipitationSumIn
2013-4-1,51.0,43.8,32.9,45.2,31.2,12.2,96,66,27,30.04,29.75,13,6,22,0.01
2013-4-2,41.1,34.2,28.5,18.2,13.9,11.0,63,44,30,30.23,30.02,12,6,20,0.00
2013-4-3,42.7,34.9,29.1,18.5,13.7,9.7,59,42,28,30.46,30.20,12,6,19,0.00
2013-4-4,53.1,39.0,25.8,22.0,17.3,13.7,70,44,25,30.49,30.12,9,4,13,0.00
2013-4-5,58.9,45.5,33.3,26.1,20.6,16.0,66,39,20,30.15,29.88,13,5,20,0.00
2013-4-6,52.2,41.5,30.5,21.9,15.9,10.7,56,37,19,30.41,30.14,8,4,13,0.00
2013-4-7,63.9,53.2,42.2,41.9,31.7,17.0,58,44,31,30.30,29.98,12,7,22,0.00
2013-4-8,74.2,60.7,42.5,48.4,42.5,38.0,87,54,30,30.17,29.97,9,3,15,0.00
2013-4-9,80.7,70.7,59.6,51.4,45.6,38.2,67,43,25,30.09,29.90,12,5,21,0.00
2013-4-10,82.3,69.1,60.4,62.3,55.2,49.6,94,64,42,29.98,29.81,17,4,21,0.58
2013-4-11,61.0,53.8,49.7,58.8,49.8,45.4,96,86,78,30.02,29.84,10,3,14,0.04
2013-4-12,49.6,46.7,43.5,45.6,43.5,40.7,93,89,83,29.96,29.73,13,5,20,0.40
2013-4-13,53.7,48.0,43.1,45.4,36.2,33.1,93,64,49,30.03,29.87,10,4,15,0.00
2013-4-14,57.4,49.3,40.6,36.8,31.3,25.5,73,51,36,30.23,30.03,13,5,20,0.00
2013-4-15,64.9,54.2,46.3,46.5,38.3,30.3,68,55,49,30.35,30.23,9,5,13,0.00
2013-4-16,57.9,54.3,53.3,50.1,46.0,42.7,79,74,65,30.35,30.27,9,6,16,0.00
2013-4-18,62.7,59.4,57.5,56.3,51.5,36.1,87,76,43,30.28,30.05,8,6,14,0.00
2013-4-19,73.0,63.6,50.5,63.7,56.7,43.8,93,79,67,30.05,29.56,13,8,24,0.64
2013-4-20,52.7,47.1,39.2,44.5,30.7,21.3,81,54,36,30.45,29.81,11,6,20,0.01
2013-4-21,52.6,42.3,31.2,27.6,22.7,20.0,69,47,31,30.68,30.45,9,3,14,0.00
2013-4-22,56.2,47.0,38.4,32.2,28.8,22.5,75,51,32,30.68,30.50,9,5,18,0.00
2013-4-23,62.4,49.5,40.9,43.1,36.6,30.0,77,62,39,30.52,30.17,8,3,14,0.00
2013-4-24,71.3,55.7,42.0,58.8,47.3,39.3,93,75,48,30.17,29.79,13,4,22,0.34
2013-4-25,59.3,49.9,41.8,39.7,31.6,26.0,73,52,30,30.34,30.09,10,4,16,0.00
2013-4-26,61.4,52.3,43.3,36.4,30.0,21.3,75,45,22,30.52,30.35,6,3,12,0.00
2013-4-27,69.3,54.9,39.2,40.3,32.9,26.6,77,47,23,30.51,30.32,6,2,9,0.00
2013-4-28,68.5,56.9,43.4,45.9,39.5,33.5,82,56,30,30.34,30.19,12,4,20,0.01
2013-4-29,57.7,55.3,51.9,53.4,47.6,33.9,90,77,47,30.22,30.13,7,4,11,0.04
2013-4-30,66.6,59.3,54.1,52.0,49.0,34.7,92,71,45,30.38,30.21,8,4,13,0.00